Aviation Digital Data Service (ADDS)

Output produced by METARs form (2142 UTC 19 April 2021)
found at http://aviationweather.gov/metar/data/
 
LSZH 192120Z VRB02KT 9999 FEW035 04/00 Q1018 NOSIG
LSZH 192050Z VRB01KT 9999 SCT070 06/00 Q1018 NOSIG
TAF LSZH 192025Z 1921/2103 VRB02KT CAVOK TX15/2015Z TN01/2004Z 
     BECMG 1921/1924 9999 FEW070 
     PROB40 2002/2008 4500 BR NSC 
     PROB30 
     TEMPO 2003/2007 0700 FG VV003 
     PROB40 
     TEMPO 2010/2015 07009KT FEW045TCU
       
LFSB 192130Z AUTO VRB02KT 9000 NSC 08/05 Q1018 NOSIG
LFSB 192100Z AUTO VRB02KT 9999 FEW015 OVC084 08/05 Q1018 NOSIG
TAF LFSB 191700Z 1918/2018 35005KT 9999 FEW040 BKN060 
     PROB40 
     TEMPO 1918/1920 -SHRA SCT040TCU 
     PROB40 2000/2007 4000 MIFG 
     PROB30 
     TEMPO 2002/2006 0400 FG VV/// 
     TEMPO 2012/2017 FEW040TCU
       
LSZG 192120Z AUTO 34001KT CAVOK 07/03 Q1018
LSZG 192050Z AUTO 20001KT CAVOK 08/03 Q1018
TAF LSZG 191425Z 1915/1924 09005KT 9999 FEW060 BKN070 
     PROB30 
     TEMPO 1915/1921 CAVOK 
     PROB30 
     TEMPO 1916/1919 32012KT
       
LSZB 192120Z AUTO 11002KT 9999 FEW100 OVC110 04/02 Q1017
LSZB 192050Z AUTO 13003KT 9999 OVC110 04/02 Q1017
TAF LSZB 191425Z 1915/1924 33006KT 9999 SCT075
       
LSGG 192120Z VRB02KT CAVOK 09/00 Q1017 NOSIG
LSGG 192050Z 04004KT CAVOK 10/00 Q1017 NOSIG
TAF LSGG 192025Z 1921/2103 03008KT 9999 FEW070 TX16/2015Z TN01/2005Z 
     BECMG 1921/1923 CAVOK 
     BECMG 2008/2010 9999 FEW040
       
LSZR 192120Z AUTO 11005KT 9999 BKN060 BKN075 BKN085 08/06 Q1018
LSZR 192050Z AUTO 10005KT 9999 FEW060 BKN070 OVC080 08/06 Q1018
TAF LSZR 191425Z 1915/1924 29006KT 9999 FEW040 SCT075 
     PROB30 
     TEMPO 1918/1921 SHRA
       
LSGS 192120Z AUTO VRB01KT 9999 NCD 10/M01 Q1016
LSGS 192050Z AUTO 28003KT 9999 BKN100 11/M00 Q1016
TAF LSGS 191425Z 1915/1924 24006KT 9999 SCT070
       
LSZA 192120Z AUTO VRB01KT 9999 NSC 08/04 Q1015
LSZA 192050Z AUTO VRB01KT 5000 NSC 09/04 Q1015
TAF LSZA 191425Z 1915/1924 20006KT 9999 BKN090
       
EDNY 192120Z AUTO VRB01KT 9999 // OVC100/// 06/03 Q1018
EDNY 192050Z AUTO VRB02KT 9999 // OVC100/// 07/03 Q1018
TAF EDNY 191700Z 1918/2018 VRB03KT 9999 FEW050 
     TEMPO 1918/1920 SHRA BKN040CB 
     PROB30 
     TEMPO 2002/2006 4000 BR 
     TEMPO 2009/2015 23005KT
       
EDDS 192120Z 09002KT 9000 FEW026 04/04 Q1018
EDDS 192050Z 30005KT 9999 FEW027 04/04 Q1018
TAF EDDS 191700Z 1918/2018 VRB03KT 9999 SCT012 BKN020 
     BECMG 1921/1924 3000 BCFG 
     TEMPO 2000/2007 0300 FG VV000 
     TEMPO 2007/2009 BKN006 
     BECMG 2008/2010 9999
       
LOWI 192120Z AUTO 05003KT 020V080 9999 -RA FEW028 BKN032 06/04 Q1018
LOWI 192050Z AUTO 08003KT 050V110 9999 FEW032 BKN050 07/04 Q1018
TAF LOWI 191715Z 1918/2018 VRB03KT 9999 FEW040 BKN060 TX14/2014Z TN04/2003Z 
     TEMPO 1918/1921 -SHRA 
     TEMPO 2000/2006 BKN012 
     BECMG 2009/2011 07007KT
       
EDDM 192120Z 26004KT 9999 FEW038 SCT050 06/04 Q1017 NOSIG
EDDM 192050Z 27003KT CAVOK 06/04 Q1018 NOSIG
TAF EDDM 191700Z 1918/2024 24005KT 9999 SCT035 
     BECMG 1918/1920 VRB03KT 
     PROB30 
     TEMPO 2003/2007 4000 BR BKN010 
     BECMG 2008/2010 25005KT 
     PROB40 
     TEMPO 2010/2015 SHRA BKN030TCU 
     BECMG 2015/2017 VRB03KT
       
TAF LFMD 191400Z 1915/2015 18010KT CAVOK 
     TEMPO 1915/1918 26015KT SHRA BKN040TCU 
     BECMG 1920/1922 35005KT 
     BECMG 2010/2012 24012KT
       
LFLL 192130Z 35004KT CAVOK 10/04 Q1016 NOSIG
LFLL 192100Z 34006KT CAVOK 11/04 Q1017 NOSIG
TAF LFLL 191700Z 1918/2024 36006KT CAVOK 
     PROB30 
     TEMPO 2004/2006 VRB02KT 4000 BR 
     TEMPO 2017/2024 FEW055TCU 
     PROB40 
     TEMPO 2019/2024 VRB05KT 4000 -SHRA SCT055TCU BKN060
       
LIMC 192120Z 03004KT 9999 BKN070 09/02 Q1015 NOSIG
LIMC 192050Z 03002KT 9999 BKN070 10/02 Q1015 NOSIG
TAF LIMC 191700Z 1918/2024 VRB06KT CAVOK
       
LFPB 192130Z AUTO 34003KT CAVOK 10/03 Q1018 NOSIG
LFPB 192100Z AUTO 01004KT CAVOK 11/03 Q1018 NOSIG
TAF LFPB 191700Z 1918/2018 35005KT CAVOK 
     PROB40 2003/2007 4000 BR 
     PROB30 
     TEMPO 2004/2007 0800 BCFG BKN003
       
LIPZ 192120Z 15007KT CAVOK 12/08 Q1015 NOSIG
LIPZ 192050Z 19003KT CAVOK 12/06 Q1015 NOSIG
TAF LIPZ 191700Z 1918/2024 VRB05KT 9999 SCT030 
     BECMG 2008/2010 17010KT 
     BECMG 2016/2018 VRB05KT